createdAt,value
2019-03-22T00:00:29.805Z,16.47
2019-03-22T00:02:59.097Z,17.23
2019-03-22T00:05:28.384Z,17.60
2019-03-22T00:07:57.653Z,16.57
2019-03-22T00:10:26.949Z,16.67
2019-03-22T00:12:56.194Z,18.80
2019-03-22T00:15:25.852Z,16.53
2019-03-22T00:17:55.106Z,18.70
2019-03-22T00:20:24.387Z,19.10
2019-03-22T00:22:53.637Z,20.33
2019-03-22T00:25:22.869Z,22.07
2019-03-22T00:27:52.121Z,22.60
2019-03-22T00:30:21.449Z,22.93
2019-03-22T00:32:50.697Z,24.67
2019-03-22T00:35:19.958Z,28.53
2019-03-22T00:37:49.274Z,27.67
2019-03-22T00:40:18.510Z,28.93
2019-03-22T00:42:47.769Z,28.17
2019-03-22T00:45:17.161Z,28.33
2019-03-22T00:47:46.501Z,28.27
2019-03-22T00:50:15.914Z,29.60
2019-03-22T00:52:45.173Z,28.57
2019-03-22T00:55:14.510Z,27.97
2019-03-22T00:57:43.778Z,32.00
2019-03-22T01:00:14.249Z,28.87
2019-03-22T01:02:43.556Z,30.80
2019-03-22T01:05:14.193Z,34.50
2019-03-22T01:07:43.693Z,30.97
2019-03-22T01:10:13.549Z,30.90
2019-03-22T01:12:42.891Z,26.07
2019-03-22T01:15:13.140Z,30.13
2019-03-22T01:17:42.427Z,28.33
2019-03-22T01:20:12.064Z,28.37
2019-03-22T01:22:41.473Z,28.27
2019-03-22T01:25:11.009Z,31.03
2019-03-22T01:27:41.460Z,28.30
2019-03-22T01:30:12.189Z,26.73
2019-03-22T01:32:41.461Z,28.30
2019-03-22T01:35:10.896Z,29.73
2019-03-22T01:37:40.221Z,28.27
2019-03-22T01:40:10.001Z,31.70
2019-03-22T01:42:39.639Z,32.60
2019-03-22T01:45:09.714Z,27.97
2019-03-22T01:47:39.065Z,28.73
2019-03-22T01:50:10.082Z,28.93
2019-03-22T01:52:40.117Z,28.43
2019-03-22T01:55:09.610Z,28.00
2019-03-22T01:57:38.971Z,27.77
2019-03-22T02:00:09.157Z,31.60
2019-03-22T02:02:38.477Z,31.70
2019-03-22T02:05:09.294Z,27.63
2019-03-22T02:07:38.593Z,32.63
2019-03-22T02:10:08.593Z,28.67
2019-03-22T02:12:37.925Z,29.53
2019-03-22T02:15:09.449Z,32.30
2019-03-22T02:17:38.685Z,35.43
2019-03-22T02:20:09.535Z,30.80
2019-03-22T02:22:38.816Z,31.73
2019-03-22T02:25:08.644Z,29.70
2019-03-22T02:27:38.110Z,31.77
2019-03-22T02:30:08.942Z,32.80
2019-03-22T02:32:38.330Z,32.30
2019-03-22T02:35:08.267Z,35.90
2019-03-22T02:37:37.618Z,32.67
2019-03-22T02:40:07.678Z,32.40
2019-03-22T02:42:36.927Z,33.13
2019-03-22T02:45:07.474Z,31.00
2019-03-22T02:47:36.720Z,35.07
2019-03-22T02:50:18.105Z,29.87
2019-03-22T02:52:38.630Z,32.63
2019-03-22T02:55:08.562Z,37.23
2019-03-22T02:57:37.885Z,33.40
2019-03-22T03:00:08.366Z,34.50
2019-03-22T03:02:37.597Z,33.43
2019-03-22T03:05:08.586Z,36.90
2019-03-22T03:07:38.214Z,33.63
2019-03-22T03:10:08.718Z,33.40
2019-03-22T03:12:38.105Z,34.77
2019-03-22T03:15:08.453Z,31.80
2019-03-22T03:17:37.710Z,37.00
2019-03-22T03:20:08.570Z,36.70
2019-03-22T03:22:37.889Z,34.73
2019-03-22T03:25:08.866Z,40.87
2019-03-22T03:27:38.167Z,36.07
2019-03-22T03:30:08.691Z,38.37
2019-03-22T03:32:37.990Z,34.63
2019-03-22T03:35:07.844Z,31.80
2019-03-22T03:37:37.184Z,36.23
2019-03-22T03:40:08.129Z,39.63
2019-03-22T03:42:37.546Z,38.50
2019-03-22T03:45:08.040Z,39.73
2019-03-22T03:47:37.289Z,40.53
2019-03-22T03:50:07.805Z,37.63
2019-03-22T03:52:39.521Z,35.63
2019-03-22T03:55:08.205Z,41.57
2019-03-22T03:57:37.487Z,45.30
2019-03-22T04:00:08.171Z,39.50
2019-03-22T04:02:37.434Z,38.30
2019-03-22T04:05:07.332Z,42.97
2019-03-22T04:07:36.596Z,37.23
2019-03-22T04:10:06.962Z,38.67
2019-03-22T04:12:36.281Z,34.70
2019-03-22T04:15:06.710Z,38.87
2019-03-22T04:17:36.038Z,35.20
2019-03-22T04:20:05.949Z,36.47
2019-03-22T04:22:36.506Z,38.80
2019-03-22T04:25:06.673Z,33.53
2019-03-22T04:27:36.206Z,34.93
2019-03-22T04:30:06.229Z,35.07
2019-03-22T04:32:35.490Z,37.63
2019-03-22T04:35:05.263Z,36.10
2019-03-22T04:37:34.586Z,38.53
2019-03-22T04:40:07.081Z,37.70
2019-03-22T04:42:36.320Z,33.20
2019-03-22T04:45:05.957Z,39.23
2019-03-22T04:47:35.841Z,33.93
2019-03-22T04:50:05.437Z,32.80
2019-03-22T04:52:34.946Z,37.47
2019-03-22T04:55:04.865Z,32.00
2019-03-22T04:57:35.377Z,37.17
2019-03-22T05:00:06.129Z,36.97
2019-03-22T05:02:35.909Z,38.10
2019-03-22T05:05:05.974Z,34.67
2019-03-22T05:07:35.956Z,31.37
2019-03-22T05:10:05.989Z,33.80
2019-03-22T05:12:36.001Z,33.67
2019-03-22T05:15:06.441Z,31.67
2019-03-22T05:17:36.037Z,34.87
2019-03-22T05:20:05.806Z,35.20
2019-03-22T05:22:37.094Z,37.03
2019-03-22T05:25:06.849Z,35.10
2019-03-22T05:27:39.033Z,31.40
2019-03-22T05:30:11.534Z,35.87
2019-03-22T05:32:40.757Z,34.90
2019-03-22T05:35:10.009Z,35.20
2019-03-22T05:37:39.277Z,36.27
2019-03-22T05:40:08.790Z,32.37
2019-03-22T05:42:38.062Z,34.60
2019-03-22T05:45:08.122Z,36.47
2019-03-22T05:47:37.365Z,35.47
2019-03-22T05:50:06.728Z,32.00
2019-03-22T05:52:35.999Z,33.63
2019-03-22T05:55:06.338Z,35.07
2019-03-22T05:57:35.633Z,33.77
2019-03-22T06:00:06.197Z,31.70
2019-03-22T06:02:35.513Z,35.60
2019-03-22T06:05:05.345Z,35.77
2019-03-22T06:07:36.982Z,32.33
2019-03-22T06:10:06.381Z,29.17
2019-03-22T06:12:35.661Z,30.77
2019-03-22T06:15:05.873Z,31.13
2019-03-22T06:17:35.129Z,28.57
2019-03-22T06:20:04.586Z,29.10
2019-03-22T06:22:35.324Z,32.00
2019-03-22T06:25:05.666Z,27.07
2019-03-22T06:27:34.916Z,33.27
2019-03-22T06:30:05.375Z,30.90
2019-03-22T06:32:34.601Z,27.23
2019-03-22T06:35:04.323Z,30.10
2019-03-22T06:37:33.590Z,25.23
2019-03-22T06:40:02.914Z,29.70
2019-03-22T06:42:32.222Z,32.50
2019-03-22T06:45:01.502Z,29.83
2019-03-22T06:47:30.749Z,31.10
2019-03-22T06:50:00.049Z,33.03
2019-03-22T06:52:29.398Z,30.60
2019-03-22T06:54:58.633Z,32.33
2019-03-22T06:57:27.886Z,30.70
2019-03-22T07:00:05.946Z,30.97
2019-03-22T07:02:28.236Z,30.97
2019-03-22T07:04:57.534Z,32.73
2019-03-22T07:07:26.809Z,30.93
2019-03-22T07:09:56.237Z,30.17
2019-03-22T07:12:25.573Z,31.83
2019-03-22T07:14:54.833Z,32.20
2019-03-22T07:17:24.201Z,30.33
2019-03-22T07:19:53.588Z,30.70
2019-03-22T07:22:22.845Z,31.97
2019-03-22T07:24:52.103Z,31.07
2019-03-22T07:27:21.345Z,30.13
2019-03-22T07:29:50.672Z,30.03
2019-03-22T07:32:20.079Z,31.07
2019-03-22T07:34:49.369Z,30.67
2019-03-22T07:37:18.655Z,33.23
2019-03-22T07:39:47.904Z,30.43
2019-03-22T07:42:17.675Z,32.77
2019-03-22T07:44:47.111Z,28.97
2019-03-22T07:47:16.414Z,31.37
2019-03-22T07:49:45.664Z,31.47
2019-03-22T07:52:14.932Z,31.83
2019-03-22T07:54:44.172Z,33.50
2019-03-22T07:57:13.569Z,32.47
2019-03-22T07:59:42.899Z,34.13
2019-03-22T08:02:12.260Z,33.10
2019-03-22T08:04:41.532Z,37.43
2019-03-22T08:07:10.815Z,33.80
2019-03-22T08:09:40.090Z,35.93
2019-03-22T08:12:09.378Z,35.63
2019-03-22T08:14:38.778Z,34.40
2019-03-22T08:17:08.044Z,33.43
2019-03-22T08:19:37.377Z,33.80
2019-03-22T08:22:06.725Z,37.03
2019-03-22T08:24:35.991Z,33.90
2019-03-22T08:27:05.312Z,34.00
2019-03-22T08:29:34.597Z,34.43
2019-03-22T08:32:03.937Z,35.97
2019-03-22T08:34:33.255Z,36.40
2019-03-22T08:37:02.591Z,36.43
2019-03-22T08:39:31.863Z,36.60
2019-03-22T08:42:01.139Z,35.83
2019-03-22T08:44:30.432Z,36.53
2019-03-22T08:46:59.679Z,36.97
2019-03-22T08:49:29.073Z,37.37
2019-03-22T08:51:58.571Z,38.10
2019-03-22T08:54:27.811Z,38.67
2019-03-22T08:56:57.036Z,37.93
2019-03-22T08:59:26.331Z,39.07
2019-03-22T09:01:55.868Z,38.33
2019-03-22T09:04:25.114Z,39.80
2019-03-22T09:06:54.388Z,40.40
2019-03-22T09:09:23.656Z,37.97
2019-03-22T09:11:52.988Z,35.30
2019-03-22T09:14:22.329Z,36.90
2019-03-22T09:16:52.167Z,37.10
2019-03-22T09:19:21.451Z,38.47
2019-03-22T09:21:50.797Z,38.67
2019-03-22T09:24:20.069Z,40.17
2019-03-22T09:26:51.927Z,40.87
2019-03-22T09:29:21.173Z,39.13
2019-03-22T09:31:53.368Z,41.13
2019-03-22T09:34:33.216Z,40.63
2019-03-22T09:36:52.432Z,39.57
2019-03-22T09:39:21.745Z,40.13
2019-03-22T09:41:51.076Z,41.43
2019-03-22T09:44:20.334Z,40.00
2019-03-22T09:46:49.685Z,40.73
2019-03-22T09:49:18.977Z,40.77
2019-03-22T09:51:48.230Z,41.00
2019-03-22T09:54:17.497Z,41.13
2019-03-22T09:56:47.627Z,40.87
2019-03-22T09:59:17.077Z,41.70
2019-03-22T10:01:46.345Z,40.00
2019-03-22T10:04:15.633Z,42.50
2019-03-22T10:06:44.985Z,44.13
2019-03-22T10:09:14.513Z,41.07
2019-03-22T10:11:43.844Z,44.43
2019-03-22T10:14:13.167Z,43.47
2019-03-22T10:16:42.449Z,43.10
2019-03-22T10:19:11.805Z,42.87
2019-03-22T10:21:41.162Z,42.77
2019-03-22T10:24:10.462Z,45.77
2019-03-22T10:26:39.795Z,45.77
2019-03-22T10:29:09.112Z,43.83
2019-03-22T10:31:38.413Z,46.30
2019-03-22T10:34:07.691Z,44.70
2019-03-22T10:36:37.009Z,45.83
2019-03-22T10:39:08.965Z,43.20
2019-03-22T10:41:38.251Z,42.73
2019-03-22T10:44:07.574Z,42.93
2019-03-22T10:46:36.849Z,42.60
2019-03-22T10:49:06.105Z,41.80
2019-03-22T10:51:35.433Z,42.23
2019-03-22T10:54:04.755Z,43.53
2019-03-22T10:56:34.113Z,45.37
2019-03-22T10:59:03.381Z,41.20
2019-03-22T11:01:46.476Z,44.63
2019-03-22T11:06:32.929Z,41.97
2019-03-22T11:09:02.179Z,44.47
2019-03-22T11:11:31.581Z,43.53
2019-03-22T11:14:00.853Z,41.47
2019-03-22T11:16:30.104Z,42.13
2019-03-22T11:18:59.353Z,41.87
2019-03-22T11:21:28.650Z,42.83
2019-03-22T11:23:57.987Z,43.10
2019-03-22T11:26:27.241Z,42.00
2019-03-22T11:28:56.530Z,40.17
2019-03-22T11:31:28.704Z,38.40
2019-03-22T11:33:56.808Z,41.07
2019-03-22T11:36:26.095Z,39.13
2019-03-22T11:38:55.421Z,36.30
2019-03-22T11:41:24.738Z,40.50
2019-03-22T11:43:54.079Z,39.33
2019-03-22T11:46:23.330Z,37.27
2019-03-22T11:48:52.650Z,37.00
2019-03-22T11:51:22.001Z,35.30
2019-03-22T11:53:51.245Z,37.73
2019-03-22T11:56:20.572Z,38.03
2019-03-22T11:58:49.837Z,36.37
2019-03-22T12:01:21.396Z,37.40
2019-03-22T12:03:50.136Z,35.07
2019-03-22T12:06:19.573Z,34.23
2019-03-22T12:08:48.813Z,32.83
2019-03-22T12:11:18.049Z,34.03
2019-03-22T12:13:47.313Z,34.37
2019-03-22T12:16:16.554Z,32.70
2019-03-22T12:18:45.895Z,32.00
2019-03-22T12:21:15.325Z,32.63
2019-03-22T12:23:44.565Z,32.17
2019-03-22T12:26:13.820Z,31.20
2019-03-22T12:28:43.065Z,32.97
2019-03-22T12:31:12.461Z,32.05
2019-03-22T12:33:41.733Z,33.13
2019-03-22T12:36:11.019Z,32.73
2019-03-22T12:38:40.256Z,28.03
2019-03-22T12:41:09.598Z,28.07
2019-03-22T12:43:38.849Z,28.73
2019-03-22T12:46:08.096Z,27.87
2019-03-22T12:48:37.357Z,29.07
2019-03-22T12:51:06.687Z,29.05
2019-03-22T12:53:35.937Z,26.70
2019-03-22T12:56:05.726Z,27.13
2019-03-22T12:58:34.989Z,26.45
2019-03-22T13:01:04.374Z,24.27
2019-03-22T13:03:33.629Z,24.43
2019-03-22T13:06:02.903Z,24.00
2019-03-22T13:08:33.769Z,24.43
2019-03-22T13:11:03.345Z,25.15
2019-03-22T13:13:32.659Z,24.47
2019-03-22T13:16:01.916Z,23.70
2019-03-22T13:18:33.395Z,24.70
2019-03-22T13:21:02.664Z,22.45
2019-03-22T13:23:31.906Z,25.62
2019-03-22T13:26:01.178Z,22.77
2019-03-22T13:28:30.437Z,25.43
2019-03-22T13:30:59.682Z,22.75
2019-03-22T13:33:28.938Z,24.50
2019-03-22T13:35:58.205Z,25.82
2019-03-22T13:38:27.524Z,26.80
2019-03-22T13:40:56.941Z,23.02
2019-03-22T13:43:26.204Z,23.12
2019-03-22T13:45:55.462Z,26.57
2019-03-22T13:48:24.709Z,23.75
2019-03-22T13:50:54.075Z,22.42
2019-03-22T13:53:23.305Z,22.27
2019-03-22T13:55:52.593Z,22.98
2019-03-22T13:58:21.867Z,20.85
2019-03-22T14:00:51.337Z,20.95
2019-03-22T14:03:20.669Z,21.12
2019-03-22T14:05:50.131Z,20.05
2019-03-22T14:08:19.379Z,18.52
2019-03-22T14:10:48.709Z,19.45
2019-03-22T14:13:17.965Z,19.42
2019-03-22T14:15:47.233Z,19.73
2019-03-22T14:18:16.640Z,19.85
2019-03-22T14:20:45.885Z,17.62
2019-03-22T14:23:15.217Z,17.37
2019-03-22T14:25:44.439Z,17.35
2019-03-22T14:28:13.726Z,16.67
2019-03-22T14:30:42.964Z,19.12
2019-03-22T14:33:13.585Z,18.23
2019-03-22T14:35:43.172Z,18.55
2019-03-22T14:38:12.429Z,16.37
2019-03-22T14:40:41.749Z,17.82
2019-03-22T14:43:11.170Z,18.30
2019-03-22T14:45:40.531Z,17.98
2019-03-22T14:48:09.785Z,20.32
2019-03-22T14:50:39.101Z,17.05
2019-03-22T14:53:08.366Z,18.65
2019-03-22T14:55:37.626Z,17.10
2019-03-22T14:58:06.979Z,17.12
2019-03-22T15:00:36.613Z,17.57
2019-03-22T15:03:23.873Z,18.07
2019-03-22T15:05:54.722Z,17.95
2019-03-22T15:08:24.237Z,18.02
2019-03-22T15:10:53.701Z,17.02
2019-03-22T15:13:27.885Z,18.80
2019-03-22T15:16:26.194Z,17.73
2019-03-22T15:19:13.247Z,18.82
2019-03-22T15:22:00.541Z,18.32
2019-03-22T15:25:01.145Z,19.98
2019-03-22T15:27:55.453Z,19.23
2019-03-22T15:30:49.945Z,19.35
2019-03-22T15:33:34.577Z,20.70
2019-03-22T15:36:34.986Z,19.57
2019-03-22T15:39:34.660Z,20.40
2019-03-22T15:42:08.084Z,19.60
2019-03-22T15:44:37.337Z,20.52
2019-03-22T15:47:06.671Z,19.65
2019-03-22T15:49:36.007Z,21.07
2019-03-22T15:52:05.347Z,19.67
2019-03-22T15:54:34.638Z,19.10
2019-03-22T15:57:04.125Z,20.43
2019-03-22T15:59:33.364Z,19.80
2019-03-22T16:02:02.651Z,20.17
2019-03-22T16:04:31.890Z,20.50
2019-03-22T16:07:01.129Z,20.92
2019-03-22T16:09:31.147Z,20.17
2019-03-22T16:12:00.505Z,19.48
2019-03-22T16:14:29.765Z,21.00
2019-03-22T16:16:59.021Z,19.85
2019-03-22T16:19:28.304Z,20.25
2019-03-22T16:21:57.581Z,19.55
2019-03-22T16:24:27.025Z,20.92
2019-03-22T16:26:56.257Z,21.25
2019-03-22T16:29:25.505Z,21.73
2019-03-22T16:31:54.786Z,21.02
2019-03-22T16:34:24.045Z,20.95
2019-03-22T16:36:53.302Z,19.87
2019-03-22T16:39:22.677Z,21.00
2019-03-22T16:41:51.935Z,19.70
2019-03-22T16:44:21.170Z,20.52
2019-03-22T16:46:50.465Z,21.07
2019-03-22T16:49:19.714Z,18.70
2019-03-22T16:51:49.001Z,20.17
2019-03-22T16:54:18.257Z,21.15
2019-03-22T16:56:47.513Z,19.95
2019-03-22T16:59:16.778Z,20.68
2019-03-22T17:01:46.053Z,21.62
2019-03-22T17:04:15.293Z,21.82
2019-03-22T17:06:47.573Z,22.15
2019-03-22T17:09:16.913Z,20.68
2019-03-22T17:11:46.154Z,22.25
2019-03-22T17:14:15.733Z,20.82
2019-03-22T17:16:45.003Z,22.77
2019-03-22T17:19:14.341Z,21.57
2019-03-22T17:21:43.667Z,20.12
2019-03-22T17:24:12.983Z,20.05
2019-03-22T17:26:42.325Z,19.90
2019-03-22T17:29:11.597Z,21.55
2019-03-22T17:31:40.852Z,22.07
2019-03-22T17:34:14.266Z,21.55
2019-03-22T17:36:41.114Z,20.05
2019-03-22T17:39:10.492Z,25.37
2019-03-22T17:41:39.724Z,19.52
2019-03-22T17:44:09.061Z,20.52
2019-03-22T17:46:38.350Z,19.92
2019-03-22T17:49:07.605Z,20.10
2019-03-22T17:51:36.847Z,20.68
2019-03-22T17:54:06.197Z,20.15
2019-03-22T17:56:35.464Z,20.25
2019-03-22T17:59:04.845Z,20.57
2019-03-22T18:01:34.208Z,19.15
2019-03-22T18:04:03.831Z,18.85
2019-03-22T18:06:33.094Z,17.85
2019-03-22T18:09:02.369Z,19.70
2019-03-22T18:11:31.635Z,20.00
2019-03-22T18:14:00.882Z,21.23
2019-03-22T18:16:30.131Z,20.83
2019-03-22T18:18:59.389Z,21.17
2019-03-22T18:21:28.665Z,20.17
2019-03-22T18:23:57.929Z,20.07
2019-03-22T18:26:27.190Z,20.70
2019-03-22T18:28:56.433Z,18.80
2019-03-22T18:31:25.712Z,17.87
2019-03-22T18:33:54.965Z,19.10
2019-03-22T18:36:24.225Z,19.57
2019-03-22T18:38:53.493Z,19.63
2019-03-22T18:41:22.909Z,18.87
2019-03-22T18:43:52.378Z,19.27
2019-03-22T18:46:21.653Z,20.63
2019-03-22T18:48:50.937Z,21.37
2019-03-22T18:51:20.177Z,20.40
2019-03-22T18:53:49.484Z,20.93
2019-03-22T18:56:18.743Z,19.57
2019-03-22T18:58:48.226Z,20.57
2019-03-22T19:01:17.518Z,22.33
2019-03-22T19:03:46.753Z,21.27
2019-03-22T19:06:16.004Z,21.43
2019-03-22T19:08:45.311Z,24.80
2019-03-22T19:11:14.653Z,23.30
2019-03-22T19:13:44.034Z,24.73
2019-03-22T19:16:13.419Z,25.00
2019-03-22T19:18:42.663Z,26.97
2019-03-22T19:21:11.994Z,30.33
2019-03-22T19:23:41.269Z,30.67
2019-03-22T19:26:10.528Z,31.27
2019-03-22T19:28:39.777Z,31.27
2019-03-22T19:31:09.046Z,33.20
2019-03-22T19:33:38.285Z,33.30
2019-03-22T19:36:07.541Z,32.67
2019-03-22T19:38:36.901Z,32.63
2019-03-22T19:41:06.154Z,35.73
2019-03-22T19:43:35.413Z,34.83
2019-03-22T19:46:05.130Z,36.57
2019-03-22T19:48:34.373Z,33.40
2019-03-22T19:51:03.882Z,32.67
2019-03-22T19:53:33.157Z,33.33
2019-03-22T19:56:02.448Z,33.53
2019-03-22T19:58:31.803Z,34.70
2019-03-22T20:01:01.097Z,34.70
2019-03-22T20:03:30.357Z,31.70
2019-03-22T20:05:59.663Z,37.90
2019-03-22T20:08:29.009Z,32.20
2019-03-22T20:10:58.245Z,32.27
2019-03-22T20:13:27.477Z,32.37
2019-03-22T20:15:56.833Z,32.30
2019-03-22T20:18:26.181Z,31.03
2019-03-22T20:20:55.435Z,31.20
2019-03-22T20:23:24.734Z,32.77
2019-03-22T20:25:53.986Z,31.00
2019-03-22T20:28:23.346Z,29.83
2019-03-22T20:30:52.629Z,31.47
2019-03-22T20:33:21.886Z,31.97
2019-03-22T20:35:51.121Z,30.70
2019-03-22T20:38:20.398Z,32.13
2019-03-22T20:40:49.637Z,34.00
2019-03-22T20:43:21.099Z,33.13
2019-03-22T20:45:49.917Z,33.20
2019-03-22T20:48:19.185Z,30.67
2019-03-22T20:50:48.681Z,32.33
2019-03-22T20:53:17.954Z,33.57
2019-03-22T20:55:47.222Z,33.70
2019-03-22T20:58:16.477Z,33.57
2019-03-22T21:00:45.777Z,34.00
2019-03-22T21:03:15.117Z,33.23
2019-03-22T21:05:44.391Z,32.77
2019-03-22T21:08:13.662Z,33.70
2019-03-22T21:10:42.916Z,33.50
2019-03-22T21:13:12.250Z,32.90
2019-03-22T21:15:41.585Z,31.83
2019-03-22T21:18:10.838Z,34.27
2019-03-22T21:20:40.080Z,35.30
2019-03-22T21:23:09.337Z,33.47
2019-03-22T21:25:38.666Z,36.20
2019-03-22T21:28:07.997Z,38.10
2019-03-22T21:30:37.265Z,38.50
2019-03-22T21:33:06.501Z,38.00
2019-03-22T21:35:37.536Z,40.07
2019-03-22T21:38:11.197Z,41.13
2019-03-22T21:40:37.717Z,43.00
2019-03-22T21:43:07.029Z,42.30
2019-03-22T21:45:36.646Z,43.43
2019-03-22T21:48:06.065Z,40.57
2019-03-22T21:50:35.493Z,40.60
2019-03-22T21:53:04.773Z,41.17
2019-03-22T21:55:34.038Z,41.60
2019-03-22T21:58:03.502Z,40.87
2019-03-22T22:00:33.156Z,41.87
2019-03-22T22:03:02.419Z,43.40
2019-03-22T22:05:31.689Z,43.20
2019-03-22T22:08:01.001Z,44.80
2019-03-22T22:10:30.341Z,42.33
2019-03-22T22:12:59.601Z,42.03
2019-03-22T22:15:28.893Z,43.33
2019-03-22T22:17:58.145Z,42.43
2019-03-22T22:20:29.252Z,42.97
2019-03-22T22:22:58.882Z,41.87
2019-03-22T22:25:28.197Z,45.93
2019-03-22T22:27:57.452Z,41.10
2019-03-22T22:30:26.769Z,42.07
2019-03-22T22:32:56.109Z,41.07
2019-03-22T22:35:25.357Z,42.97
2019-03-22T22:37:54.762Z,43.50
2019-03-22T22:40:24.005Z,42.33
2019-03-22T22:42:55.227Z,42.90
2019-03-22T22:45:24.523Z,40.70
2019-03-22T22:47:53.788Z,41.50
2019-03-22T22:50:23.039Z,41.53
2019-03-22T22:52:52.302Z,41.60
2019-03-22T22:55:21.546Z,39.20
2019-03-22T22:57:50.797Z,42.90
2019-03-22T23:00:20.074Z,40.80
2019-03-22T23:02:49.341Z,41.73
2019-03-22T23:05:18.670Z,41.70
2019-03-22T23:07:47.933Z,44.63
2019-03-22T23:10:18.601Z,42.63
2019-03-22T23:12:47.849Z,42.07
2019-03-22T23:15:17.243Z,43.93
2019-03-22T23:17:46.513Z,42.13
2019-03-22T23:20:15.769Z,40.87
2019-03-22T23:22:46.117Z,41.63
2019-03-22T23:25:15.362Z,45.83
2019-03-22T23:27:44.613Z,44.03
2019-03-22T23:30:14.758Z,43.60
2019-03-22T23:32:44.009Z,44.10
2019-03-22T23:35:13.513Z,44.77
2019-03-22T23:37:42.881Z,44.50
2019-03-22T23:40:12.466Z,44.30
2019-03-22T23:42:41.705Z,43.93
2019-03-22T23:45:11.341Z,43.97
2019-03-22T23:47:41.164Z,40.57
2019-03-22T23:50:10.698Z,40.90
2019-03-22T23:52:39.997Z,39.13
2019-03-22T23:55:09.789Z,36.10
2019-03-22T23:57:39.065Z,36.57
